Time;durP1;ratioP1;P1;durP2;ratioP2;P2;SDS_P1;SDS_P2;PMS_P1;PMS_P2;Temp;Humidity;BMP_temperature;BMP_pressure;BME280_temperature;BME280_humidity;BME280_pressure;Samples;Min_cycle;Max_cycle;Signal;HPM_P1;HPM_P2
2023/07/11 00:01:24;;;;;;;0.10;0.10;;;;;;;;;;5072079;28;20557;-74
2023/07/11 00:03:52;;;;;;;0.00;0.00;;;;;;;;;;5076226;28;20204;-75
2023/07/11 00:06:19;;;;;;;0.10;0.10;;;;;;;;;;5072183;28;20257;-75
2023/07/11 00:08:46;;;;;;;0.00;0.00;;;;;;;;;;5075908;28;20204;-74
2023/07/11 00:11:12;;;;;;;0.10;0.10;;;;;;;;;;5070435;28;20307;-75
2023/07/11 00:13:39;;;;;;;0.10;0.10;;;;;;;;;;5077762;28;20215;-75
2023/07/11 00:16:07;;;;;;;0.10;0.10;;;;;;;;;;5068721;28;20244;-74
2023/07/11 00:18:34;;;;;;;0.00;0.00;;;;;;;;;;5079460;28;20274;-75
2023/07/11 00:21:02;;;;;;;0.10;0.10;;;;;;;;;;5067427;28;20257;-75
2023/07/11 00:23:28;;;;;;;0.00;0.00;;;;;;;;;;5080922;28;20204;-75
2023/07/11 00:25:55;;;;;;;0.10;0.10;;;;;;;;;;5066016;28;20284;-75
2023/07/11 00:28:21;;;;;;;0.10;0.10;;;;;;;;;;5082563;28;20369;-74
2023/07/11 00:30:48;;;;;;;0.00;0.00;;;;;;;;;;5064133;28;20238;-74
2023/07/11 00:33:15;;;;;;;0.00;0.00;;;;;;;;;;5083643;28;20449;-75
2023/07/11 00:35:44;;;;;;;0.00;0.00;;;;;;;;;;5062093;28;20305;-75
2023/07/11 00:38:12;;;;;;;0.10;0.10;;;;;;;;;;5085152;28;20242;-75
2023/07/11 00:40:40;;;;;;;0.03;0.03;;;;;;;;;;5061456;28;20241;-75
2023/07/11 00:43:09;;;;;;;0.00;0.00;;;;;;;;;;5086228;28;20205;-74
2023/07/11 00:45:54;;;;;;;0.00;0.00;;;;;;;;;;5060105;28;20302;-74
2023/07/11 00:48:23;;;;;;;0.08;0.08;;;;;;;;;;5082651;28;20232;-74
2023/07/11 00:50:50;;;;;;;0.10;0.10;;;;;;;;;;5064125;28;20439;-74
2023/07/11 00:53:18;;;;;;;0.08;0.08;;;;;;;;;;5083720;28;20400;-75
2023/07/11 00:55:45;;;;;;;0.10;0.10;;;;;;;;;;5062971;28;20248;-75
2023/07/11 00:58:12;;;;;;;0.10;0.10;;;;;;;;;;5084745;28;20206;-73
2023/07/11 01:00:38;;;;;;;0.13;0.13;;;;;;;;;;5060732;28;20438;-74
2023/07/11 01:03:05;;;;;;;0.10;0.10;;;;;;;;;;5086723;28;20216;-75
2023/07/11 01:05:31;;;;;;;0.10;0.10;;;;;;;;;;5060514;28;20272;-74
2023/07/11 01:07:57;;;;;;;0.05;0.05;;;;;;;;;;5092325;28;20228;-74
2023/07/11 01:10:25;;;;;;;0.10;0.10;;;;;;;;;;5060300;28;20227;-74
2023/07/11 01:12:58;;;;;;;0.05;0.05;;;;;;;;;;5093668;28;20230;-74
2023/07/11 01:15:25;;;;;;;0.10;0.10;;;;;;;;;;5060898;28;20273;-74
2023/07/11 01:17:51;;;;;;;0.00;0.00;;;;;;;;;;5093776;28;20503;-74
2023/07/11 01:20:17;;;;;;;0.00;0.00;;;;;;;;;;5058848;28;20274;-74
2023/07/11 01:22:45;;;;;;;0.00;0.00;;;;;;;;;;5095456;28;20262;-74
2023/07/11 01:25:13;;;;;;;0.10;0.10;;;;;;;;;;5057110;28;20238;-74
2023/07/11 01:27:40;;;;;;;0.30;0.30;;;;;;;;;;5096481;28;20195;-74
2023/07/11 01:30:08;;;;;;;0.10;0.10;;;;;;;;;;5065942;28;20213;-74
2023/07/11 01:32:35;;;;;;;0.10;0.10;;;;;;;;;;5054329;28;20455;-74
2023/07/11 01:35:01;;;;;;;0.00;0.00;;;;;;;;;;5065855;28;20268;-74
2023/07/11 01:37:28;;;;;;;0.00;0.00;;;;;;;;;;5087836;28;20309;-74
2023/07/11 01:39:56;;;;;;;0.10;0.10;;;;;;;;;;5065958;28;20393;-74
2023/07/11 01:42:22;;;;;;;0.10;0.10;;;;;;;;;;5087641;28;20305;-74
2023/07/11 01:44:48;;;;;;;0.00;0.00;;;;;;;;;;5065835;28;20207;-74
2023/07/11 01:47:15;;;;;;;0.10;0.10;;;;;;;;;;5087751;28;20510;-74
2023/07/11 01:49:41;;;;;;;0.00;0.00;;;;;;;;;;5065590;28;20269;-74
2023/07/11 01:52:12;;;;;;;0.03;0.03;;;;;;;;;;5087485;28;20239;-74
2023/07/11 01:54:38;;;;;;;0.17;0.17;;;;;;;;;;5065536;28;20238;-73
2023/07/11 01:57:07;;;;;;;0.03;0.03;;;;;;;;;;5086631;28;20349;-74
2023/07/11 01:59:34;;;;;;;0.10;0.10;;;;;;;;;;5065583;28;20219;-74
2023/07/11 02:02:00;;;;;;;0.10;0.10;;;;;;;;;;5085308;28;20264;-74
2023/07/11 02:04:27;;;;;;;0.10;0.10;;;;;;;;;;5067096;28;20245;-74
2023/07/11 02:06:53;;;;;;;0.00;0.00;;;;;;;;;;5083456;28;20257;-74
2023/07/11 02:09:21;;;;;;;0.00;0.00;;;;;;;;;;5068921;28;20210;-74
2023/07/11 02:11:47;;;;;;;0.00;0.00;;;;;;;;;;5081685;28;20247;-74
2023/07/11 02:14:17;;;;;;;0.00;0.00;;;;;;;;;;5070021;28;20277;-74
2023/07/11 02:16:44;;;;;;;0.10;0.10;;;;;;;;;;5080520;28;20481;-73
2023/07/11 02:19:10;;;;;;;0.03;0.03;;;;;;;;;;5071476;28;20421;-74
2023/07/11 02:21:37;;;;;;;0.00;0.00;;;;;;;;;;5078961;28;20237;-74
2023/07/11 02:24:03;;;;;;;0.10;0.10;;;;;;;;;;5072807;28;20214;-74
2023/07/11 02:26:29;;;;;;;0.10;0.10;;;;;;;;;;5076644;28;20244;-74
2023/07/11 02:28:56;;;;;;;0.00;0.00;;;;;;;;;;5074944;28;20216;-74
2023/07/11 02:31:24;;;;;;;0.00;0.00;;;;;;;;;;5074577;28;20239;-74
2023/07/11 02:33:50;;;;;;;0.00;0.00;;;;;;;;;;5076381;28;20278;-74
2023/07/11 02:36:16;;;;;;;0.00;0.00;;;;;;;;;;5072727;28;20308;-74
2023/07/11 02:38:43;;;;;;;0.10;0.10;;;;;;;;;;5078234;28;20283;-74
2023/07/11 02:41:09;;;;;;;0.00;0.00;;;;;;;;;;5070640;28;20269;-74
2023/07/11 02:43:36;;;;;;;0.00;0.00;;;;;;;;;;5080080;28;20206;-74
2023/07/11 02:46:02;;;;;;;0.08;0.08;;;;;;;;;;5068975;28;20241;-74
2023/07/11 02:48:30;;;;;;;0.08;0.08;;;;;;;;;;5081753;28;20206;-75
2023/07/11 02:50:56;;;;;;;0.10;0.10;;;;;;;;;;5067297;28;20308;-74
2023/07/11 02:53:23;;;;;;;0.10;0.10;;;;;;;;;;5083538;28;20210;-74
2023/07/11 02:55:50;;;;;;;0.08;0.08;;;;;;;;;;5065610;28;20260;-74
2023/07/11 02:58:17;;;;;;;0.00;0.00;;;;;;;;;;5085092;28;20236;-74
2023/07/11 03:00:46;;;;;;;0.10;0.10;;;;;;;;;;5063655;28;20264;-74
2023/07/11 03:03:13;;;;;;;0.10;0.10;;;;;;;;;;5086090;28;20445;-74
2023/07/11 03:05:43;;;;;;;0.05;0.05;;;;;;;;;;5062602;28;20577;-74
2023/07/11 03:08:09;;;;;;;0.00;0.00;;;;;;;;;;5086921;28;20200;-74
2023/07/11 03:10:35;;;;;;;0.10;0.10;;;;;;;;;;5061519;28;20259;-74
2023/07/11 03:13:02;;;;;;;0.10;0.10;;;;;;;;;;5088535;28;20294;-74
2023/07/11 03:15:28;;;;;;;0.10;0.10;;;;;;;;;;5059393;28;20282;-74
2023/07/11 03:17:55;;;;;;;0.00;0.00;;;;;;;;;;5090674;28;20207;-74
2023/07/11 03:20:22;;;;;;;0.10;0.10;;;;;;;;;;5057342;28;20440;-74
2023/07/11 03:22:49;;;;;;;0.10;0.10;;;;;;;;;;5092265;28;20196;-74
2023/07/11 03:25:16;;;;;;;0.10;0.10;;;;;;;;;;5056024;28;20279;-74
2023/07/11 03:27:42;;;;;;;0.10;0.10;;;;;;;;;;5093436;28;20216;-74
2023/07/11 03:30:09;;;;;;;0.10;0.10;;;;;;;;;;5055797;28;20205;-74
2023/07/11 03:32:35;;;;;;;0.00;0.00;;;;;;;;;;5095545;28;20241;-74
2023/07/11 03:35:02;;;;;;;0.00;0.00;;;;;;;;;;5063834;28;20248;-74
2023/07/11 03:37:28;;;;;;;0.10;0.10;;;;;;;;;;5085716;28;20471;-74
2023/07/11 03:39:56;;;;;;;0.10;0.10;;;;;;;;;;5063792;28;20214;-74
2023/07/11 03:42:22;;;;;;;0.10;0.10;;;;;;;;;;5085580;28;20263;-74
2023/07/11 03:44:49;;;;;;;0.10;0.10;;;;;;;;;;5063774;28;20277;-74
2023/07/11 03:47:15;;;;;;;0.00;0.00;;;;;;;;;;5085560;28;20243;-74
2023/07/11 03:49:42;;;;;;;0.03;0.03;;;;;;;;;;5063699;28;20540;-74
2023/07/11 03:52:08;;;;;;;0.00;0.00;;;;;;;;;;5085556;28;20539;-74
2023/07/11 03:54:34;;;;;;;0.10;0.10;;;;;;;;;;5063511;28;20270;-74
2023/07/11 03:57:02;;;;;;;0.05;0.05;;;;;;;;;;5083594;28;20238;-75
2023/07/11 03:59:30;;;;;;;0.10;0.10;;;;;;;;;;5064636;28;20241;-74
2023/07/11 04:01:57;;;;;;;0.00;0.00;;;;;;;;;;5082706;28;20442;-74
2023/07/11 04:04:23;;;;;;;0.10;0.10;;;;;;;;;;5065931;28;20462;-74
2023/07/11 04:06:49;;;;;;;0.10;0.10;;;;;;;;;;5080462;28;20305;-74
2023/07/11 04:09:16;;;;;;;0.08;0.08;;;;;;;;;;5067936;28;20232;-73
2023/07/11 04:11:42;;;;;;;0.00;0.00;;;;;;;;;;5078552;28;20239;-74
2023/07/11 04:14:11;;;;;;;0.00;0.00;;;;;;;;;;5069538;28;20228;-73
2023/07/11 04:16:37;;;;;;;0.13;0.13;;;;;;;;;;5077256;28;20239;-73
2023/07/11 04:19:04;;;;;;;0.10;0.10;;;;;;;;;;5071214;28;20205;-74
2023/07/11 04:21:30;;;;;;;0.00;0.00;;;;;;;;;;5075379;28;20272;-74
2023/07/11 04:23:56;;;;;;;0.10;0.10;;;;;;;;;;5072827;28;20246;-73
2023/07/11 04:26:23;;;;;;;0.10;0.10;;;;;;;;;;5073279;28;20239;-74
2023/07/11 04:28:49;;;;;;;0.10;0.10;;;;;;;;;;5075019;28;20448;-74
2023/07/11 04:31:17;;;;;;;1.65;1.58;;;;;;;;;;5071022;28;20252;-74
2023/07/11 04:33:43;;;;;;;0.10;0.10;;;;;;;;;;5076887;28;20561;-74
2023/07/11 04:36:11;;;;;;;7.85;7.22;;;;;;;;;;5069583;28;20242;-74
2023/07/11 04:38:38;;;;;;;0.10;0.10;;;;;;;;;;5077953;28;20221;-74
2023/07/11 04:41:05;;;;;;;0.10;0.10;;;;;;;;;;5070305;28;20324;-73
2023/07/11 04:43:33;;;;;;;0.00;0.00;;;;;;;;;;5083359;28;20240;-73
2023/07/11 04:46:00;;;;;;;2.08;1.98;;;;;;;;;;5070688;28;20481;-74
2023/07/11 04:48:28;;;;;;;0.00;0.00;;;;;;;;;;5084963;28;20278;-74
2023/07/11 04:50:56;;;;;;;0.10;0.10;;;;;;;;;;5068660;28;20242;-74
2023/07/11 04:53:22;;;;;;;0.00;0.00;;;;;;;;;;5085621;28;20260;-74
2023/07/11 04:55:54;;;;;;;0.00;0.00;;;;;;;;;;5067853;28;20241;-74
2023/07/11 04:58:21;;;;;;;0.00;0.00;;;;;;;;;;5086243;28;20281;-74
2023/07/11 05:00:47;;;;;;;0.10;0.10;;;;;;;;;;5067117;28;20263;-74
2023/07/11 05:03:13;;;;;;;0.05;0.05;;;;;;;;;;5088081;28;20213;-74
2023/07/11 05:05:41;;;;;;;0.10;0.10;;;;;;;;;;5065308;28;20320;-74
2023/07/11 05:08:08;;;;;;;0.00;0.00;;;;;;;;;;5089742;28;20193;-74
2023/07/11 05:10:34;;;;;;;0.10;0.10;;;;;;;;;;5063586;28;20243;-74
2023/07/11 05:13:00;;;;;;;0.08;0.08;;;;;;;;;;5091343;28;20451;-74
2023/07/11 05:15:27;;;;;;;0.00;0.00;;;;;;;;;;5061576;28;20253;-74
2023/07/11 05:17:53;;;;;;;0.10;0.10;;;;;;;;;;5092828;28;20198;-74
2023/07/11 05:20:20;;;;;;;0.10;0.10;;;;;;;;;;5059417;28;20468;-75
2023/07/11 05:22:47;;;;;;;0.10;0.10;;;;;;;;;;5095074;28;20262;-74
2023/07/11 05:25:14;;;;;;;0.08;0.08;;;;;;;;;;5057727;28;20277;-73
2023/07/11 05:27:40;;;;;;;0.08;0.08;;;;;;;;;;5096691;28;20261;-74
2023/07/11 05:30:08;;;;;;;0.00;0.00;;;;;;;;;;5065337;28;20214;-74
2023/07/11 05:32:34;;;;;;;0.10;0.10;;;;;;;;;;5097751;28;20231;-74
2023/07/11 05:35:00;;;;;;;0.00;0.00;;;;;;;;;;5066020;28;20215;-73
2023/07/11 05:37:27;;;;;;;0.05;0.05;;;;;;;;;;5087997;28;20445;-75
2023/07/11 05:39:54;;;;;;;0.00;0.00;;;;;;;;;;5065955;28;20242;-75
2023/07/11 05:42:21;;;;;;;0.00;0.00;;;;;;;;;;5087813;28;20233;-75
2023/07/11 05:44:47;;;;;;;0.00;0.00;;;;;;;;;;5065833;28;20245;-74
2023/07/11 05:47:14;;;;;;;0.10;0.10;;;;;;;;;;5087705;28;20391;-73
2023/07/11 05:49:40;;;;;;;0.10;0.10;;;;;;;;;;5065711;28;20211;-74
2023/07/11 05:52:07;;;;;;;0.00;0.00;;;;;;;;;;5086765;28;20233;-74
2023/07/11 05:54:33;;;;;;;0.10;0.10;;;;;;;;;;5065622;28;20278;-74
2023/07/11 05:57:01;;;;;;;0.10;0.10;;;;;;;;;;5085206;28;20260;-74
2023/07/11 05:59:28;;;;;;;0.00;0.00;;;;;;;;;;5066992;28;20207;-74
2023/07/11 06:01:54;;;;;;;0.10;0.10;;;;;;;;;;5082762;28;20427;-75
2023/07/11 06:04:20;;;;;;;0.10;0.10;;;;;;;;;;5069467;28;20206;-74
2023/07/11 06:06:49;;;;;;;0.10;0.10;;;;;;;;;;5081664;28;20342;-74
2023/07/11 06:09:17;;;;;;;0.00;0.00;;;;;;;;;;5070237;28;20277;-74
2023/07/11 06:11:43;;;;;;;0.00;0.00;;;;;;;;;;5080485;28;20241;-74
2023/07/11 06:14:11;;;;;;;0.10;0.10;;;;;;;;;;5071625;28;20231;-75
2023/07/11 06:16:38;;;;;;;0.00;0.00;;;;;;;;;;5079041;28;20308;-73
2023/07/11 06:19:05;;;;;;;0.00;0.00;;;;;;;;;;5072716;28;20215;-75
2023/07/11 06:21:31;;;;;;;0.00;0.00;;;;;;;;;;5077318;28;20604;-74
2023/07/11 06:23:58;;;;;;;0.00;0.00;;;;;;;;;;5074624;28;20236;-74
2023/07/11 06:26:24;;;;;;;0.10;0.10;;;;;;;;;;5075502;28;20242;-74
2023/07/11 06:28:50;;;;;;;0.10;0.10;;;;;;;;;;5076166;28;20278;-74
2023/07/11 06:31:18;;;;;;;0.00;0.00;;;;;;;;;;5073388;28;20248;-74
2023/07/11 06:33:44;;;;;;;0.00;0.00;;;;;;;;;;5078135;28;20266;-74
2023/07/11 06:36:11;;;;;;;0.08;0.08;;;;;;;;;;5071583;28;20257;-74
2023/07/11 06:38:38;;;;;;;0.25;0.25;;;;;;;;;;5079716;28;20205;-75
2023/07/11 06:41:04;;;;;;;0.00;0.00;;;;;;;;;;5069761;28;20537;-74
2023/07/11 06:43:31;;;;;;;0.10;0.10;;;;;;;;;;5081408;28;20203;-72
2023/07/11 06:45:59;;;;;;;0.00;0.00;;;;;;;;;;5067864;28;20309;-75
2023/07/11 06:48:28;;;;;;;0.00;0.00;;;;;;;;;;5082851;28;20196;-74
2023/07/11 06:50:56;;;;;;;0.00;0.00;;;;;;;;;;5067367;28;20241;-74
2023/07/11 06:53:22;;;;;;;0.00;0.00;;;;;;;;;;5083775;28;20259;-74
2023/07/11 06:55:54;;;;;;;0.10;0.10;;;;;;;;;;5065548;28;20238;-74
2023/07/11 06:58:21;;;;;;;0.25;0.25;;;;;;;;;;5085932;28;20264;-73
2023/07/11 07:00:52;;;;;;;0.00;0.00;;;;;;;;;;5064973;28;20242;-74
2023/07/11 07:03:18;;;;;;;0.10;0.10;;;;;;;;;;5083696;28;20220;-75
2023/07/11 07:05:49;;;;;;;0.00;0.00;;;;;;;;;;5064189;28;20589;-75
2023/07/11 07:08:15;;;;;;;0.03;0.03;;;;;;;;;;5085720;28;20203;-74
2023/07/11 07:10:42;;;;;;;0.00;0.00;;;;;;;;;;5063403;28;20261;-74
2023/07/11 07:13:08;;;;;;;0.00;0.00;;;;;;;;;;5086830;28;20228;-74
2023/07/11 07:15:34;;;;;;;0.10;0.10;;;;;;;;;;5061204;28;20262;-74
2023/07/11 07:18:01;;;;;;;0.00;0.00;;;;;;;;;;5088899;28;20222;-74
2023/07/11 07:20:27;;;;;;;0.00;0.00;;;;;;;;;;5059383;28;20255;-74
2023/07/11 07:22:55;;;;;;;0.00;0.00;;;;;;;;;;5090935;28;20238;-75
2023/07/11 07:25:22;;;;;;;0.40;0.40;;;;;;;;;;5057273;28;20208;-74
2023/07/11 07:27:48;;;;;;;0.00;0.00;;;;;;;;;;5092486;28;20226;-75
2023/07/11 07:30:14;;;;;;;0.10;0.10;;;;;;;;;;5055773;28;20391;-74
2023/07/11 07:32:41;;;;;;;0.00;0.00;;;;;;;;;;5093884;28;20216;-75
2023/07/11 07:35:07;;;;;;;0.10;0.10;;;;;;;;;;5061118;28;20400;-75
2023/07/11 07:37:35;;;;;;;0.10;0.10;;;;;;;;;;5096005;28;20223;-74
2023/07/11 07:40:03;;;;;;;0.10;0.10;;;;;;;;;;5063937;28;20238;-75
2023/07/11 07:42:29;;;;;;;0.65;0.45;;;;;;;;;;5085733;28;20235;-75
2023/07/11 07:44:56;;;;;;;0.00;0.00;;;;;;;;;;5063769;28;20279;-74
2023/07/11 07:47:22;;;;;;;0.10;0.10;;;;;;;;;;5085751;28;20257;-73
2023/07/11 07:49:48;;;;;;;0.00;0.00;;;;;;;;;;5063347;28;20196;-75
2023/07/11 07:52:15;;;;;;;0.00;0.00;;;;;;;;;;5085611;28;20262;-76
2023/07/11 07:54:41;;;;;;;0.00;0.00;;;;;;;;;;5063299;28;20250;-75
2023/07/11 07:57:09;;;;;;;0.10;0.10;;;;;;;;;;5085290;28;20258;-75
2023/07/11 07:59:35;;;;;;;0.00;0.00;;;;;;;;;;5063732;28;20275;-75
2023/07/11 08:02:02;;;;;;;0.00;0.00;;;;;;;;;;5083452;28;20238;-75
2023/07/11 08:04:30;;;;;;;0.00;0.00;;;;;;;;;;5065405;28;20207;-75
2023/07/11 08:06:56;;;;;;;0.00;0.00;;;;;;;;;;5082271;28;20242;-76
2023/07/11 08:09:23;;;;;;;0.00;0.00;;;;;;;;;;5066546;28;20254;-76
2023/07/11 08:11:49;;;;;;;0.05;0.05;;;;;;;;;;5080340;28;20250;-75
2023/07/11 08:14:18;;;;;;;0.00;0.00;;;;;;;;;;5069312;28;20220;-75
2023/07/11 08:16:44;;;;;;;0.00;0.00;;;;;;;;;;5082908;28;20238;-75
2023/07/11 08:19:11;;;;;;;0.00;0.00;;;;;;;;;;5073711;28;20276;-75
2023/07/11 08:21:37;;;;;;;0.00;0.00;;;;;;;;;;5081070;28;20254;-75
2023/07/11 08:24:05;;;;;;;0.00;0.00;;;;;;;;;;5075804;28;20457;-75
2023/07/11 08:26:31;;;;;;;0.00;0.00;;;;;;;;;;5079351;28;20549;-75
2023/07/11 08:28:59;;;;;;;0.00;0.00;;;;;;;;;;5077101;28;20212;-76
2023/07/11 08:31:27;;;;;;;0.00;0.00;;;;;;;;;;5078055;28;20470;-75
2023/07/11 08:33:53;;;;;;;0.00;0.00;;;;;;;;;;5078027;28;20252;-74
2023/07/11 08:36:20;;;;;;;0.00;0.00;;;;;;;;;;5076330;28;20648;-76
2023/07/11 08:38:47;;;;;;;0.00;0.00;;;;;;;;;;5079692;28;20271;-75
2023/07/11 08:41:18;;;;;;;0.00;0.00;;;;;;;;;;5074184;28;20491;-75
2023/07/11 08:43:45;;;;;;;0.30;0.30;;;;;;;;;;5080034;28;20260;-75
2023/07/11 08:46:14;;;;;;;1.58;1.35;;;;;;;;;;5074033;28;20455;-75
2023/07/11 08:48:45;;;;;;;0.00;0.00;;;;;;;;;;5080748;28;20272;-76
2023/07/11 08:51:20;;;;;;;0.00;0.00;;;;;;;;;;5074194;28;20241;-75
2023/07/11 08:53:48;;;;;;;0.00;0.00;;;;;;;;;;5079115;28;20282;-75
2023/07/11 08:56:16;;;;;;;0.05;0.05;;;;;;;;;;5074163;28;20268;-75
2023/07/11 08:58:43;;;;;;;0.00;0.00;;;;;;;;;;5079974;28;20204;-74
2023/07/11 09:01:15;;;;;;;0.00;0.00;;;;;;;;;;5073002;28;20238;-79
2023/07/11 09:03:44;;;;;;;0.00;0.00;;;;;;;;;;5080041;28;20203;-77
2023/07/11 09:06:13;;;;;;;0.00;0.00;;;;;;;;;;5073464;28;20305;-78
2023/07/11 09:08:42;;;;;;;0.00;0.00;;;;;;;;;;5081087;28;20544;-76
2023/07/11 09:11:13;;;;;;;2.25;0.90;;;;;;;;;;5072722;28;20442;-77
2023/07/11 09:13:50;;;;;;;0.00;0.00;;;;;;;;;;5080601;28;20216;-79
2023/07/11 09:16:21;;;;;;;0.00;0.00;;;;;;;;;;5074490;28;20242;-78
2023/07/11 09:18:52;;;;;;;0.00;0.00;;;;;;;;;;5078778;28;20227;-78
2023/07/11 09:21:21;;;;;;;0.00;0.00;;;;;;;;;;5075117;28;20415;-79
2023/07/11 09:23:53;;;;;;;0.00;0.00;;;;;;;;;;5078340;28;20200;-78
2023/07/11 09:26:24;;;;;;;0.22;0.22;;;;;;;;;;5073535;28;20239;-80
2023/07/11 09:29:00;;;;;;;0.00;0.00;;;;;;;;;;5078544;28;20220;-79
2023/07/11 09:31:28;;;;;;;0.00;0.00;;;;;;;;;;5077149;28;20588;-79
2023/07/11 09:33:56;;;;;;;0.00;0.00;;;;;;;;;;5076170;28;20227;-75
2023/07/11 09:36:25;;;;;;;0.00;0.00;;;;;;;;;;5075803;28;20251;-79
2023/07/11 09:38:55;;;;;;;0.00;0.00;;;;;;;;;;5076700;28;20204;-77
2023/07/11 09:41:24;;;;;;;0.00;0.00;;;;;;;;;;5075394;28;20258;-79
2023/07/11 09:43:50;;;;;;;0.00;0.00;;;;;;;;;;5077070;28;20200;-78
2023/07/11 09:46:21;;;;;;;0.00;0.00;;;;;;;;;;5074047;28;20309;-80
2023/07/11 09:48:49;;;;;;;0.00;0.00;;;;;;;;;;5078187;28;20185;-79
2023/07/11 09:51:24;;;;;;;0.00;0.00;;;;;;;;;;5073671;28;20238;-79
2023/07/11 09:53:53;;;;;;;0.00;0.00;;;;;;;;;;5076985;28;20256;-79
2023/07/11 09:56:19;;;;;;;0.08;0.08;;;;;;;;;;5074558;28;20349;-79
2023/07/11 09:58:47;;;;;;;0.00;0.00;;;;;;;;;;5077967;28;20210;-79
2023/07/11 10:01:17;;;;;;;0.00;0.00;;;;;;;;;;5073018;28;20477;-79
2023/07/11 10:03:47;;;;;;;0.00;0.00;;;;;;;;;;5078764;28;20250;-79
2023/07/11 10:06:23;;;;;;;0.00;0.00;;;;;;;;;;5072839;28;20663;-78
2023/07/11 10:08:50;;;;;;;0.00;0.00;;;;;;;;;;5077471;28;20421;-80
2023/07/11 10:11:17;;;;;;;0.00;0.00;;;;;;;;;;5073516;28;20284;-76
2023/07/11 10:13:45;;;;;;;0.00;0.00;;;;;;;;;;5078475;28;20224;-83
2023/07/11 10:16:15;;;;;;;0.00;0.00;;;;;;;;;;5072524;28;20466;-77
2023/07/11 10:18:44;;;;;;;0.00;0.00;;;;;;;;;;5079248;28;20210;-80
2023/07/11 10:21:12;;;;;;;0.10;0.10;;;;;;;;;;5071859;28;20254;-79
2023/07/11 10:23:39;;;;;;;0.00;0.00;;;;;;;;;;5079530;28;20204;-79
2023/07/11 10:26:16;;;;;;;0.00;0.00;;;;;;;;;;5070253;28;20261;-79
2023/07/11 10:28:44;;;;;;;0.00;0.00;;;;;;;;;;5079120;28;20427;-78
2023/07/11 10:31:13;;;;;;;0.00;0.00;;;;;;;;;;5071505;28;20238;-79
2023/07/11 10:33:44;;;;;;;0.00;0.00;;;;;;;;;;5079580;28;20504;-79
2023/07/11 10:36:14;;;;;;;0.00;0.00;;;;;;;;;;5071503;28;20305;-80
2023/07/11 10:38:47;;;;;;;0.00;0.00;;;;;;;;;;5079030;28;20235;-78
2023/07/11 10:41:18;;;;;;;0.00;0.00;;;;;;;;;;5072207;28;20313;-79
2023/07/11 10:43:45;;;;;;;0.00;0.00;;;;;;;;;;5078185;28;20196;-78
2023/07/11 10:46:14;;;;;;;0.00;0.00;;;;;;;;;;5071617;28;20313;-78
2023/07/11 10:48:43;;;;;;;0.00;0.00;;;;;;;;;;5078640;28;20275;-78
2023/07/11 10:51:11;;;;;;;0.00;0.00;;;;;;;;;;5071001;28;20566;-78
2023/07/11 10:53:41;;;;;;;0.10;0.10;;;;;;;;;;5079022;28;20220;-78
2023/07/11 10:56:11;;;;;;;0.00;0.00;;;;;;;;;;5070207;28;20261;-79
2023/07/11 10:58:39;;;;;;;0.22;0.22;;;;;;;;;;5079392;28;20204;-79
2023/07/11 11:01:11;;;;;;;0.00;0.00;;;;;;;;;;5069325;28;20567;-79
2023/07/11 11:03:38;;;;;;;0.00;0.00;;;;;;;;;;5079292;28;20512;-79
2023/07/11 11:06:16;;;;;;;0.00;0.00;;;;;;;;;;5069408;28;20458;-79
2023/07/11 11:08:44;;;;;;;0.00;0.00;;;;;;;;;;5077704;28;20202;-80
2023/07/11 11:11:18;;;;;;;0.00;0.00;;;;;;;;;;5070799;28;20238;-80
2023/07/11 11:13:50;;;;;;;0.00;0.00;;;;;;;;;;5077140;28;20275;-79
2023/07/11 11:16:18;;;;;;;0.00;0.00;;;;;;;;;;5072383;28;20253;-80
2023/07/11 11:18:51;;;;;;;0.00;0.00;;;;;;;;;;5077339;28;20249;-79
2023/07/11 11:21:21;;;;;;;0.00;0.00;;;;;;;;;;5072574;28;20234;-80
2023/07/11 11:23:55;;;;;;;0.00;0.00;;;;;;;;;;5076200;28;20200;-79
2023/07/11 11:26:27;;;;;;;0.00;0.00;;;;;;;;;;5073841;28;20490;-80
2023/07/11 11:28:59;;;;;;;0.00;0.00;;;;;;;;;;5074939;28;20234;-79
2023/07/11 11:31:26;;;;;;;0.10;0.10;;;;;;;;;;5074504;28;20239;-79
2023/07/11 11:33:56;;;;;;;0.00;0.00;;;;;;;;;;5074785;28;20235;-79
2023/07/11 11:36:27;;;;;;;0.00;0.00;;;;;;;;;;5073568;28;20242;-80
2023/07/11 11:38:59;;;;;;;0.10;0.10;;;;;;;;;;5074519;28;20263;-78
2023/07/11 11:41:34;;;;;;;0.00;0.00;;;;;;;;;;5074212;28;20242;-80
2023/07/11 11:44:04;;;;;;;0.00;0.00;;;;;;;;;;5072562;28;20211;-80
2023/07/11 11:46:31;;;;;;;0.00;0.00;;;;;;;;;;5075619;28;20247;-79
2023/07/11 11:48:59;;;;;;;0.00;0.00;;;;;;;;;;5073095;28;20231;-80
2023/07/11 11:51:26;;;;;;;0.00;0.00;;;;;;;;;;5074297;28;20258;-80
2023/07/11 11:54:03;;;;;;;0.00;0.00;;;;;;;;;;5074552;28;20293;-80
2023/07/11 11:56:29;;;;;;;0.20;0.20;;;;;;;;;;5075315;28;20428;-80
2023/07/11 11:58:58;;;;;;;0.00;0.00;;;;;;;;;;5073710;28;20280;-79
2023/07/11 12:01:36;;;;;;;0.00;0.00;;;;;;;;;;5073128;28;20250;-81
2023/07/11 12:04:17;;;;;;;0.00;0.00;;;;;;;;;;5073234;28;20394;-79
2023/07/11 12:06:44;;;;;;;0.00;0.00;;;;;;;;;;5079541;28;20254;-82
2023/07/11 12:09:24;;;;;;;0.00;0.00;;;;;;;;;;5070099;28;20211;-82
2023/07/11 12:12:04;;;;;;;0.00;0.00;;;;;;;;;;5081045;28;20441;-83
2023/07/11 12:14:35;;;;;;;0.00;0.00;;;;;;;;;;5064272;28;20231;-84
2023/07/11 12:17:03;;;;;;;0.90;0.85;;;;;;;;;;5083663;28;20302;-82
2023/07/11 12:19:32;;;;;;;0.00;0.00;;;;;;;;;;5064917;28;20203;-84
2023/07/11 12:21:59;;;;;;;0.00;0.00;;;;;;;;;;5083107;28;20246;-84
2023/07/11 12:24:38;;;;;;;0.00;0.00;;;;;;;;;;5065542;28;20262;-83
2023/07/11 12:27:10;;;;;;;0.00;0.00;;;;;;;;;;5084861;28;20250;-86
2023/07/11 12:29:37;;;;;;;0.00;0.00;;;;;;;;;;5063931;28;20241;-86
2023/07/11 12:32:22;;;;;;;0.00;0.00;;;;;;;;;;5084384;28;20239;-83
2023/07/11 12:34:56;;;;;;;0.00;0.00;;;;;;;;;;5063949;28;20251;-84
2023/07/11 12:37:24;;;;;;;0.10;0.10;;;;;;;;;;5085811;28;20301;-81
2023/07/11 12:39:54;;;;;;;0.00;0.00;;;;;;;;;;5063403;28;20238;-83
2023/07/11 12:42:30;;;;;;;0.10;0.10;;;;;;;;;;5085298;28;20243;-84
2023/07/11 12:44:57;;;;;;;0.00;0.00;;;;;;;;;;5063468;28;20200;-83
2023/07/11 12:47:23;;;;;;;0.00;0.00;;;;;;;;;;5085058;28;20283;-83
2023/07/11 12:49:50;;;;;;;0.00;0.00;;;;;;;;;;5063218;28;20232;-85
2023/07/11 12:52:21;;;;;;;0.00;0.00;;;;;;;;;;5085377;28;20239;-83
2023/07/11 12:54:49;;;;;;;0.00;0.00;;;;;;;;;;5062978;28;20234;-84
2023/07/11 12:57:16;;;;;;;0.00;0.00;;;;;;;;;;5085414;28;20317;-83
2023/07/11 12:59:43;;;;;;;0.00;0.00;;;;;;;;;;5063182;28;20208;-81
2023/07/11 13:02:13;;;;;;;0.00;0.00;;;;;;;;;;5087527;28;20272;-81
2023/07/11 13:04:41;;;;;;;0.00;0.00;;;;;;;;;;5066929;28;20200;-81
2023/07/11 13:07:11;;;;;;;0.00;0.00;;;;;;;;;;5088664;28;20299;-81
2023/07/11 13:09:47;;;;;;;0.20;0.20;;;;;;;;;;5066772;28;20204;-81
2023/07/11 13:12:17;;;;;;;0.00;0.00;;;;;;;;;;5088657;28;20238;-81
2023/07/11 13:14:45;;;;;;;0.00;0.00;;;;;;;;;;5066533;28;20528;-81
2023/07/11 13:17:12;;;;;;;0.00;0.00;;;;;;;;;;5088309;28;20238;-80
2023/07/11 13:19:39;;;;;;;0.13;0.13;;;;;;;;;;5066490;28;20279;-80
2023/07/11 13:22:05;;;;;;;0.00;0.00;;;;;;;;;;5087544;28;20246;-81
2023/07/11 13:24:31;;;;;;;0.00;0.00;;;;;;;;;;5066610;28;20200;-81
2023/07/11 13:27:08;;;;;;;0.00;0.00;;;;;;;;;;5085462;28;20297;-81
2023/07/11 13:29:36;;;;;;;0.00;0.00;;;;;;;;;;5066252;28;20246;-81
2023/07/11 13:32:04;;;;;;;0.00;0.00;;;;;;;;;;5086726;28;20235;-80
2023/07/11 13:34:32;;;;;;;0.00;0.00;;;;;;;;;;5066926;28;20228;-80
2023/07/11 13:36:58;;;;;;;0.00;0.00;;;;;;;;;;5085624;28;20491;-80
2023/07/11 13:39:25;;;;;;;0.00;0.00;;;;;;;;;;5068256;28;20279;-81
2023/07/11 13:41:54;;;;;;;0.00;0.00;;;;;;;;;;5083680;28;20249;-81
2023/07/11 13:44:25;;;;;;;0.00;0.00;;;;;;;;;;5069374;28;20207;-81
2023/07/11 13:46:58;;;;;;;0.00;0.00;;;;;;;;;;5083803;28;20254;-80
2023/07/11 13:49:26;;;;;;;0.00;0.00;;;;;;;;;;5068570;28;20261;-80
2023/07/11 13:51:56;;;;;;;0.00;0.00;;;;;;;;;;5083802;28;20310;-82
2023/07/11 13:54:28;;;;;;;0.00;0.00;;;;;;;;;;5068496;28;20294;-80
2023/07/11 13:56:54;;;;;;;0.47;0.47;;;;;;;;;;5084122;28;20238;-81
2023/07/11 13:59:20;;;;;;;0.00;0.00;;;;;;;;;;5069136;28;20370;-81
2023/07/11 14:01:48;;;;;;;0.00;0.00;;;;;;;;;;5082018;28;20302;-81
2023/07/11 14:04:16;;;;;;;0.00;0.00;;;;;;;;;;5070672;28;20246;-80
2023/07/11 14:06:42;;;;;;;1.38;1.38;;;;;;;;;;5080746;28;20301;-81
2023/07/11 14:09:09;;;;;;;0.00;0.00;;;;;;;;;;5072208;28;20279;-80
2023/07/11 14:11:36;;;;;;;0.13;0.13;;;;;;;;;;5078533;28;20288;-80
2023/07/11 14:14:06;;;;;;;0.00;0.00;;;;;;;;;;5073559;28;20283;-81
2023/07/11 14:16:32;;;;;;;0.00;0.00;;;;;;;;;;5077697;28;20250;-79
2023/07/11 14:19:02;;;;;;;0.63;0.63;;;;;;;;;;5074435;28;20236;-82
2023/07/11 14:21:28;;;;;;;0.00;0.00;;;;;;;;;;5076724;28;20254;-79
2023/07/11 14:23:54;;;;;;;0.00;0.00;;;;;;;;;;5075387;28;20275;-79
2023/07/11 14:26:21;;;;;;;0.00;0.00;;;;;;;;;;5074948;28;20456;-79
2023/07/11 14:28:48;;;;;;;0.00;0.00;;;;;;;;;;5077329;28;20444;-79
2023/07/11 14:31:15;;;;;;;0.00;0.00;;;;;;;;;;5072471;28;20258;-79
2023/07/11 14:33:42;;;;;;;0.05;0.05;;;;;;;;;;5078655;28;20203;-78
2023/07/11 14:36:10;;;;;;;0.00;0.00;;;;;;;;;;5070736;28;20258;-79
2023/07/11 14:38:36;;;;;;;0.00;0.00;;;;;;;;;;5080257;28;20210;-78
2023/07/11 14:41:02;;;;;;;0.00;0.00;;;;;;;;;;5068978;28;20270;-78
2023/07/11 14:43:29;;;;;;;0.00;0.00;;;;;;;;;;5082476;28;20267;-79
2023/07/11 14:45:55;;;;;;;0.00;0.00;;;;;;;;;;5067409;28;20301;-78
2023/07/11 14:48:23;;;;;;;0.00;0.00;;;;;;;;;;5084173;28;20238;-78